sensor_id;sensor_type;location;lat;lon;timestamp;P1;durP1;ratioP1;P2;durP2;ratioP2
65373;SDS011;52070;53.760;9.678;2022-12-20T00:01:56;14.60;;;7.72;;
65373;SDS011;52070;53.760;9.678;2022-12-20T00:04:23;14.70;;;7.85;;
65373;SDS011;52070;53.760;9.678;2022-12-20T00:06:50;17.92;;;8.30;;
65373;SDS011;52070;53.760;9.678;2022-12-20T00:09:17;12.95;;;7.70;;
65373;SDS011;52070;53.760;9.678;2022-12-20T00:11:46;17.75;;;7.93;;
65373;SDS011;52070;53.760;9.678;2022-12-20T00:14:13;15.80;;;8.00;;
65373;SDS011;52070;53.760;9.678;2022-12-20T00:16:40;12.88;;;7.75;;
65373;SDS011;52070;53.760;9.678;2022-12-20T00:19:08;13.75;;;7.97;;
65373;SDS011;52070;53.760;9.678;2022-12-20T00:21:37;16.23;;;8.00;;
65373;SDS011;52070;53.760;9.678;2022-12-20T00:24:04;16.42;;;7.72;;
65373;SDS011;52070;53.760;9.678;2022-12-20T00:26:33;13.93;;;8.18;;
65373;SDS011;52070;53.760;9.678;2022-12-20T00:29:02;15.27;;;7.53;;
65373;SDS011;52070;53.760;9.678;2022-12-20T00:31:29;15.50;;;7.43;;
65373;SDS011;52070;53.760;9.678;2022-12-20T00:33:57;12.52;;;7.25;;
65373;SDS011;52070;53.760;9.678;2022-12-20T00:36:26;14.90;;;7.53;;
65373;SDS011;52070;53.760;9.678;2022-12-20T00:38:54;16.83;;;7.07;;
65373;SDS011;52070;53.760;9.678;2022-12-20T00:41:23;14.00;;;7.40;;
65373;SDS011;52070;53.760;9.678;2022-12-20T00:43:51;12.10;;;6.97;;
65373;SDS011;52070;53.760;9.678;2022-12-20T00:46:20;14.48;;;7.35;;
65373;SDS011;52070;53.760;9.678;2022-12-20T00:48:49;12.43;;;6.97;;
65373;SDS011;52070;53.760;9.678;2022-12-20T00:51:17;18.63;;;7.38;;
65373;SDS011;52070;53.760;9.678;2022-12-20T00:53:46;15.77;;;7.65;;
65373;SDS011;52070;53.760;9.678;2022-12-20T00:56:13;12.95;;;7.05;;
65373;SDS011;52070;53.760;9.678;2022-12-20T00:58:41;12.07;;;6.82;;
65373;SDS011;52070;53.760;9.678;2022-12-20T01:01:14;12.80;;;6.85;;
65373;SDS011;52070;53.760;9.678;2022-12-20T01:03:44;13.40;;;7.18;;
65373;SDS011;52070;53.760;9.678;2022-12-20T01:06:11;14.07;;;6.95;;
65373;SDS011;52070;53.760;9.678;2022-12-20T01:08:38;10.43;;;6.45;;
65373;SDS011;52070;53.760;9.678;2022-12-20T01:11:06;13.07;;;7.07;;
65373;SDS011;52070;53.760;9.678;2022-12-20T01:13:36;16.40;;;7.10;;
65373;SDS011;52070;53.760;9.678;2022-12-20T01:16:04;11.27;;;6.95;;
65373;SDS011;52070;53.760;9.678;2022-12-20T01:18:32;12.50;;;6.35;;
65373;SDS011;52070;53.760;9.678;2022-12-20T01:21:02;11.55;;;6.60;;
65373;SDS011;52070;53.760;9.678;2022-12-20T01:23:30;11.98;;;6.40;;
65373;SDS011;52070;53.760;9.678;2022-12-20T01:25:57;12.93;;;6.28;;
65373;SDS011;52070;53.760;9.678;2022-12-20T01:28:25;11.68;;;6.80;;
65373;SDS011;52070;53.760;9.678;2022-12-20T01:30:52;9.60;;;5.82;;
65373;SDS011;52070;53.760;9.678;2022-12-20T01:33:20;15.30;;;6.80;;
65373;SDS011;52070;53.760;9.678;2022-12-20T01:35:56;11.85;;;6.07;;
65373;SDS011;52070;53.760;9.678;2022-12-20T01:38:26;11.82;;;7.22;;
65373;SDS011;52070;53.760;9.678;2022-12-20T01:40:54;10.63;;;6.15;;
65373;SDS011;52070;53.760;9.678;2022-12-20T01:43:22;14.43;;;6.80;;
65373;SDS011;52070;53.760;9.678;2022-12-20T01:45:50;10.85;;;6.00;;
65373;SDS011;52070;53.760;9.678;2022-12-20T01:48:18;12.32;;;6.25;;
65373;SDS011;52070;53.760;9.678;2022-12-20T01:50:48;11.43;;;5.93;;
65373;SDS011;52070;53.760;9.678;2022-12-20T01:53:17;14.45;;;5.85;;
65373;SDS011;52070;53.760;9.678;2022-12-20T01:55:48;13.60;;;7.50;;
65373;SDS011;52070;53.760;9.678;2022-12-20T01:58:15;10.70;;;6.38;;
65373;SDS011;52070;53.760;9.678;2022-12-20T02:00:45;20.38;;;6.75;;
65373;SDS011;52070;53.760;9.678;2022-12-20T02:03:12;13.75;;;6.28;;
65373;SDS011;52070;53.760;9.678;2022-12-20T02:05:41;10.43;;;5.72;;
65373;SDS011;52070;53.760;9.678;2022-12-20T02:08:09;11.32;;;5.82;;
65373;SDS011;52070;53.760;9.678;2022-12-20T02:10:42;14.18;;;6.05;;
65373;SDS011;52070;53.760;9.678;2022-12-20T02:13:23;11.38;;;5.80;;
65373;SDS011;52070;53.760;9.678;2022-12-20T02:15:59;9.98;;;5.80;;
65373;SDS011;52070;53.760;9.678;2022-12-20T02:18:26;12.20;;;6.30;;
65373;SDS011;52070;53.760;9.678;2022-12-20T02:21:05;9.32;;;5.82;;
65373;SDS011;52070;53.760;9.678;2022-12-20T02:23:52;10.57;;;5.93;;
65373;SDS011;52070;53.760;9.678;2022-12-20T02:30:03;10.07;;;5.85;;
65373;SDS011;52070;53.760;9.678;2022-12-20T02:32:32;13.77;;;6.03;;
65373;SDS011;52070;53.760;9.678;2022-12-20T02:35:04;9.70;;;5.68;;
65373;SDS011;52070;53.760;9.678;2022-12-20T02:37:33;13.13;;;5.90;;
65373;SDS011;52070;53.760;9.678;2022-12-20T02:40:00;10.02;;;5.82;;
65373;SDS011;52070;53.760;9.678;2022-12-20T02:42:30;11.70;;;5.63;;
65373;SDS011;52070;53.760;9.678;2022-12-20T02:44:59;12.32;;;6.18;;
65373;SDS011;52070;53.760;9.678;2022-12-20T02:47:43;11.15;;;6.13;;
65373;SDS011;52070;53.760;9.678;2022-12-20T02:50:15;13.00;;;5.97;;
65373;SDS011;52070;53.760;9.678;2022-12-20T02:52:46;15.32;;;6.40;;
65373;SDS011;52070;53.760;9.678;2022-12-20T02:55:13;14.80;;;7.15;;
65373;SDS011;52070;53.760;9.678;2022-12-20T02:57:41;14.73;;;6.50;;
65373;SDS011;52070;53.760;9.678;2022-12-20T03:00:14;11.70;;;5.88;;
65373;SDS011;52070;53.760;9.678;2022-12-20T03:02:44;9.73;;;5.15;;
65373;SDS011;52070;53.760;9.678;2022-12-20T03:05:31;10.15;;;5.32;;
65373;SDS011;52070;53.760;9.678;2022-12-20T03:08:00;11.40;;;6.07;;
65373;SDS011;52070;53.760;9.678;2022-12-20T03:10:27;13.98;;;6.10;;
65373;SDS011;52070;53.760;9.678;2022-12-20T03:15:47;9.88;;;5.88;;
65373;SDS011;52070;53.760;9.678;2022-12-20T03:18:15;10.10;;;5.70;;
65373;SDS011;52070;53.760;9.678;2022-12-20T03:20:42;11.90;;;5.93;;
65373;SDS011;52070;53.760;9.678;2022-12-20T03:23:10;9.75;;;6.07;;
65373;SDS011;52070;53.760;9.678;2022-12-20T03:25:37;11.90;;;5.65;;
65373;SDS011;52070;53.760;9.678;2022-12-20T03:28:04;9.32;;;5.40;;
65373;SDS011;52070;53.760;9.678;2022-12-20T03:30:31;8.48;;;5.70;;
65373;SDS011;52070;53.760;9.678;2022-12-20T03:32:58;9.68;;;5.65;;
65373;SDS011;52070;53.760;9.678;2022-12-20T03:35:26;8.25;;;5.22;;
65373;SDS011;52070;53.760;9.678;2022-12-20T03:37:53;13.00;;;6.00;;
65373;SDS011;52070;53.760;9.678;2022-12-20T03:40:21;9.48;;;5.78;;
65373;SDS011;52070;53.760;9.678;2022-12-20T03:42:48;13.35;;;6.03;;
65373;SDS011;52070;53.760;9.678;2022-12-20T03:45:15;8.65;;;5.38;;
65373;SDS011;52070;53.760;9.678;2022-12-20T03:47:42;12.90;;;6.32;;
65373;SDS011;52070;53.760;9.678;2022-12-20T03:50:10;8.63;;;5.57;;
65373;SDS011;52070;53.760;9.678;2022-12-20T03:52:39;10.32;;;5.40;;
65373;SDS011;52070;53.760;9.678;2022-12-20T03:55:07;9.43;;;5.53;;
65373;SDS011;52070;53.760;9.678;2022-12-20T03:57:37;8.07;;;5.05;;
65373;SDS011;52070;53.760;9.678;2022-12-20T04:00:04;11.93;;;5.32;;
65373;SDS011;52070;53.760;9.678;2022-12-20T04:02:32;11.63;;;5.75;;
65373;SDS011;52070;53.760;9.678;2022-12-20T04:04:59;10.80;;;6.03;;
65373;SDS011;52070;53.760;9.678;2022-12-20T04:07:26;8.80;;;5.63;;
65373;SDS011;52070;53.760;9.678;2022-12-20T04:09:54;9.13;;;5.05;;
65373;SDS011;52070;53.760;9.678;2022-12-20T04:12:21;10.35;;;6.25;;
65373;SDS011;52070;53.760;9.678;2022-12-20T04:14:48;11.13;;;5.75;;
65373;SDS011;52070;53.760;9.678;2022-12-20T04:17:15;11.32;;;5.35;;
65373;SDS011;52070;53.760;9.678;2022-12-20T04:19:42;9.38;;;5.65;;
65373;SDS011;52070;53.760;9.678;2022-12-20T04:22:09;9.45;;;5.45;;
65373;SDS011;52070;53.760;9.678;2022-12-20T04:24:36;9.10;;;4.93;;
65373;SDS011;52070;53.760;9.678;2022-12-20T04:27:04;9.05;;;5.32;;
65373;SDS011;52070;53.760;9.678;2022-12-20T04:29:31;13.43;;;4.95;;
65373;SDS011;52070;53.760;9.678;2022-12-20T04:31:58;7.13;;;4.95;;
65373;SDS011;52070;53.760;9.678;2022-12-20T04:34:25;8.73;;;5.03;;
65373;SDS011;52070;53.760;9.678;2022-12-20T04:36:52;10.80;;;5.20;;
65373;SDS011;52070;53.760;9.678;2022-12-20T04:39:19;9.13;;;5.03;;
65373;SDS011;52070;53.760;9.678;2022-12-20T04:41:46;11.55;;;5.68;;
65373;SDS011;52070;53.760;9.678;2022-12-20T04:44:14;9.57;;;5.57;;
65373;SDS011;52070;53.760;9.678;2022-12-20T04:46:42;8.02;;;5.22;;
65373;SDS011;52070;53.760;9.678;2022-12-20T04:49:08;9.48;;;5.43;;
65373;SDS011;52070;53.760;9.678;2022-12-20T04:51:35;9.00;;;5.35;;
65373;SDS011;52070;53.760;9.678;2022-12-20T04:54:02;10.02;;;5.25;;
65373;SDS011;52070;53.760;9.678;2022-12-20T04:56:28;10.23;;;5.45;;
65373;SDS011;52070;53.760;9.678;2022-12-20T04:58:56;10.35;;;5.90;;
65373;SDS011;52070;53.760;9.678;2022-12-20T05:01:25;10.18;;;5.53;;
65373;SDS011;52070;53.760;9.678;2022-12-20T05:03:52;9.88;;;5.40;;
65373;SDS011;52070;53.760;9.678;2022-12-20T05:06:20;9.63;;;5.63;;
65373;SDS011;52070;53.760;9.678;2022-12-20T05:08:47;14.68;;;6.10;;
65373;SDS011;52070;53.760;9.678;2022-12-20T05:11:14;14.02;;;6.40;;
65373;SDS011;52070;53.760;9.678;2022-12-20T05:13:41;13.05;;;6.47;;
65373;SDS011;52070;53.760;9.678;2022-12-20T05:16:08;10.63;;;6.25;;
65373;SDS011;52070;53.760;9.678;2022-12-20T05:18:36;11.15;;;6.03;;
65373;SDS011;52070;53.760;9.678;2022-12-20T05:21:03;14.23;;;6.85;;
65373;SDS011;52070;53.760;9.678;2022-12-20T05:23:45;10.32;;;6.40;;
65373;SDS011;52070;53.760;9.678;2022-12-20T05:26:31;11.38;;;6.40;;
65373;SDS011;52070;53.760;9.678;2022-12-20T05:28:59;12.77;;;7.32;;
65373;SDS011;52070;53.760;9.678;2022-12-20T05:31:26;11.55;;;6.82;;
65373;SDS011;52070;53.760;9.678;2022-12-20T05:33:54;10.88;;;6.78;;
65373;SDS011;52070;53.760;9.678;2022-12-20T05:36:21;11.05;;;6.63;;
65373;SDS011;52070;53.760;9.678;2022-12-20T05:38:48;12.45;;;7.20;;
65373;SDS011;52070;53.760;9.678;2022-12-20T05:41:15;16.48;;;6.47;;
65373;SDS011;52070;53.760;9.678;2022-12-20T05:43:42;9.73;;;6.70;;
65373;SDS011;52070;53.760;9.678;2022-12-20T05:46:09;13.32;;;7.07;;
65373;SDS011;52070;53.760;9.678;2022-12-20T05:48:36;12.00;;;7.03;;
65373;SDS011;52070;53.760;9.678;2022-12-20T05:51:05;10.73;;;6.90;;
65373;SDS011;52070;53.760;9.678;2022-12-20T05:53:32;13.82;;;7.30;;
65373;SDS011;52070;53.760;9.678;2022-12-20T05:55:59;11.15;;;6.70;;
65373;SDS011;52070;53.760;9.678;2022-12-20T05:58:26;12.32;;;7.07;;
65373;SDS011;52070;53.760;9.678;2022-12-20T06:00:54;12.90;;;6.35;;
65373;SDS011;52070;53.760;9.678;2022-12-20T06:03:21;12.23;;;7.60;;
65373;SDS011;52070;53.760;9.678;2022-12-20T06:05:49;11.45;;;7.15;;
65373;SDS011;52070;53.760;9.678;2022-12-20T06:08:17;11.57;;;6.72;;
65373;SDS011;52070;53.760;9.678;2022-12-20T06:10:46;12.63;;;6.73;;
65373;SDS011;52070;53.760;9.678;2022-12-20T06:13:13;13.65;;;6.80;;
65373;SDS011;52070;53.760;9.678;2022-12-20T06:15:41;12.55;;;6.80;;
65373;SDS011;52070;53.760;9.678;2022-12-20T06:18:08;10.48;;;6.82;;
65373;SDS011;52070;53.760;9.678;2022-12-20T06:20:36;11.50;;;6.85;;
65373;SDS011;52070;53.760;9.678;2022-12-20T06:23:03;11.63;;;7.05;;
65373;SDS011;52070;53.760;9.678;2022-12-20T06:25:33;13.70;;;7.53;;
65373;SDS011;52070;53.760;9.678;2022-12-20T06:28:00;12.82;;;7.85;;
65373;SDS011;52070;53.760;9.678;2022-12-20T06:30:27;11.48;;;6.95;;
65373;SDS011;52070;53.760;9.678;2022-12-20T06:32:54;15.20;;;6.75;;
65373;SDS011;52070;53.760;9.678;2022-12-20T06:35:20;13.70;;;7.30;;
65373;SDS011;52070;53.760;9.678;2022-12-20T06:37:47;11.65;;;7.22;;
65373;SDS011;52070;53.760;9.678;2022-12-20T06:40:14;12.85;;;7.55;;
65373;SDS011;52070;53.760;9.678;2022-12-20T06:42:43;13.98;;;7.30;;
65373;SDS011;52070;53.760;9.678;2022-12-20T06:45:10;14.68;;;7.10;;
65373;SDS011;52070;53.760;9.678;2022-12-20T06:47:37;13.85;;;8.23;;
65373;SDS011;52070;53.760;9.678;2022-12-20T06:50:05;16.48;;;8.10;;
65373;SDS011;52070;53.760;9.678;2022-12-20T06:52:33;12.82;;;7.63;;
65373;SDS011;52070;53.760;9.678;2022-12-20T06:55:00;14.18;;;8.20;;
65373;SDS011;52070;53.760;9.678;2022-12-20T06:57:27;11.63;;;7.97;;
65373;SDS011;52070;53.760;9.678;2022-12-20T06:59:55;13.93;;;8.13;;
65373;SDS011;52070;53.760;9.678;2022-12-20T07:02:22;13.35;;;8.10;;
65373;SDS011;52070;53.760;9.678;2022-12-20T07:04:49;13.10;;;8.57;;
65373;SDS011;52070;53.760;9.678;2022-12-20T07:07:16;15.65;;;8.88;;
65373;SDS011;52070;53.760;9.678;2022-12-20T07:09:43;16.75;;;8.98;;
65373;SDS011;52070;53.760;9.678;2022-12-20T07:12:11;14.20;;;8.50;;
65373;SDS011;52070;53.760;9.678;2022-12-20T07:14:38;12.73;;;7.90;;
65373;SDS011;52070;53.760;9.678;2022-12-20T07:17:07;12.23;;;7.43;;
65373;SDS011;52070;53.760;9.678;2022-12-20T07:19:34;13.27;;;7.30;;
65373;SDS011;52070;53.760;9.678;2022-12-20T07:22:02;14.10;;;8.63;;
65373;SDS011;52070;53.760;9.678;2022-12-20T07:24:29;13.63;;;7.60;;
65373;SDS011;52070;53.760;9.678;2022-12-20T07:26:56;14.07;;;7.72;;
65373;SDS011;52070;53.760;9.678;2022-12-20T07:29:23;10.18;;;7.28;;
65373;SDS011;52070;53.760;9.678;2022-12-20T07:31:51;13.43;;;8.18;;
65373;SDS011;52070;53.760;9.678;2022-12-20T07:34:20;15.55;;;8.15;;
65373;SDS011;52070;53.760;9.678;2022-12-20T07:36:47;12.18;;;8.00;;
65373;SDS011;52070;53.760;9.678;2022-12-20T07:39:14;13.82;;;7.55;;
65373;SDS011;52070;53.760;9.678;2022-12-20T07:41:41;13.57;;;7.82;;
65373;SDS011;52070;53.760;9.678;2022-12-20T07:44:09;15.07;;;8.88;;
65373;SDS011;52070;53.760;9.678;2022-12-20T07:46:36;11.85;;;7.85;;
65373;SDS011;52070;53.760;9.678;2022-12-20T07:49:03;11.52;;;8.27;;
65373;SDS011;52070;53.760;9.678;2022-12-20T07:51:32;13.48;;;8.00;;
65373;SDS011;52070;53.760;9.678;2022-12-20T07:54:02;15.32;;;8.18;;
65373;SDS011;52070;53.760;9.678;2022-12-20T07:56:31;12.70;;;8.10;;
65373;SDS011;52070;53.760;9.678;2022-12-20T07:59:00;10.63;;;7.68;;
65373;SDS011;52070;53.760;9.678;2022-12-20T08:01:28;12.48;;;7.20;;
65373;SDS011;52070;53.760;9.678;2022-12-20T08:03:59;14.90;;;8.15;;
65373;SDS011;52070;53.760;9.678;2022-12-20T08:06:31;15.23;;;7.45;;
65373;SDS011;52070;53.760;9.678;2022-12-20T08:08:59;12.52;;;7.50;;
65373;SDS011;52070;53.760;9.678;2022-12-20T08:11:29;10.57;;;7.10;;
65373;SDS011;52070;53.760;9.678;2022-12-20T08:14:00;10.13;;;6.68;;
65373;SDS011;52070;53.760;9.678;2022-12-20T08:16:27;14.10;;;7.63;;
65373;SDS011;52070;53.760;9.678;2022-12-20T08:18:55;15.68;;;7.75;;
65373;SDS011;52070;53.760;9.678;2022-12-20T08:21:22;10.68;;;6.93;;
65373;SDS011;52070;53.760;9.678;2022-12-20T08:23:51;12.38;;;7.38;;
65373;SDS011;52070;53.760;9.678;2022-12-20T08:26:18;14.73;;;7.78;;
65373;SDS011;52070;53.760;9.678;2022-12-20T08:28:45;13.90;;;6.80;;
65373;SDS011;52070;53.760;9.678;2022-12-20T08:31:12;13.32;;;7.53;;
65373;SDS011;52070;53.760;9.678;2022-12-20T08:33:39;10.98;;;6.57;;
65373;SDS011;52070;53.760;9.678;2022-12-20T08:36:07;12.88;;;6.75;;
65373;SDS011;52070;53.760;9.678;2022-12-20T08:38:35;16.75;;;7.78;;
65373;SDS011;52070;53.760;9.678;2022-12-20T08:41:04;12.75;;;6.15;;
65373;SDS011;52070;53.760;9.678;2022-12-20T08:43:33;10.77;;;6.43;;
65373;SDS011;52070;53.760;9.678;2022-12-20T08:46:00;9.38;;;6.10;;
65373;SDS011;52070;53.760;9.678;2022-12-20T08:48:27;12.80;;;6.70;;
65373;SDS011;52070;53.760;9.678;2022-12-20T08:50:54;12.98;;;6.00;;
65373;SDS011;52070;53.760;9.678;2022-12-20T08:53:22;10.38;;;6.43;;
65373;SDS011;52070;53.760;9.678;2022-12-20T08:55:49;9.80;;;6.22;;
65373;SDS011;52070;53.760;9.678;2022-12-20T08:58:18;11.95;;;6.70;;
65373;SDS011;52070;53.760;9.678;2022-12-20T09:00:45;9.18;;;5.53;;
65373;SDS011;52070;53.760;9.678;2022-12-20T09:03:13;8.38;;;5.18;;
65373;SDS011;52070;53.760;9.678;2022-12-20T09:05:43;12.82;;;5.65;;
65373;SDS011;52070;53.760;9.678;2022-12-20T09:08:11;12.15;;;5.97;;
65373;SDS011;52070;53.760;9.678;2022-12-20T09:10:39;11.60;;;6.10;;
65373;SDS011;52070;53.760;9.678;2022-12-20T09:13:06;11.13;;;5.53;;
65373;SDS011;52070;53.760;9.678;2022-12-20T09:15:35;12.05;;;5.93;;
65373;SDS011;52070;53.760;9.678;2022-12-20T09:18:02;9.93;;;6.15;;
65373;SDS011;52070;53.760;9.678;2022-12-20T09:20:30;8.80;;;5.60;;
65373;SDS011;52070;53.760;9.678;2022-12-20T09:22:58;10.57;;;6.13;;
65373;SDS011;52070;53.760;9.678;2022-12-20T09:25:25;10.40;;;5.60;;
65373;SDS011;52070;53.760;9.678;2022-12-20T09:27:54;11.00;;;5.85;;
65373;SDS011;52070;53.760;9.678;2022-12-20T09:30:21;10.95;;;5.97;;
65373;SDS011;52070;53.760;9.678;2022-12-20T09:32:50;12.00;;;5.57;;
65373;SDS011;52070;53.760;9.678;2022-12-20T09:35:17;9.05;;;5.35;;
65373;SDS011;52070;53.760;9.678;2022-12-20T09:37:44;10.88;;;5.80;;
65373;SDS011;52070;53.760;9.678;2022-12-20T09:40:13;11.25;;;5.93;;
65373;SDS011;52070;53.760;9.678;2022-12-20T09:42:43;8.80;;;5.53;;
65373;SDS011;52070;53.760;9.678;2022-12-20T09:45:13;12.70;;;6.18;;
65373;SDS011;52070;53.760;9.678;2022-12-20T09:47:46;10.13;;;6.53;;
65373;SDS011;52070;53.760;9.678;2022-12-20T09:50:15;9.75;;;6.00;;
65373;SDS011;52070;53.760;9.678;2022-12-20T09:52:51;9.93;;;6.70;;
65373;SDS011;52070;53.760;9.678;2022-12-20T09:55:30;12.27;;;6.57;;
65373;SDS011;52070;53.760;9.678;2022-12-20T09:58:05;14.23;;;6.95;;
65373;SDS011;52070;53.760;9.678;2022-12-20T10:00:51;11.10;;;6.70;;
65373;SDS011;52070;53.760;9.678;2022-12-20T10:03:19;12.65;;;7.63;;
65373;SDS011;52070;53.760;9.678;2022-12-20T10:05:51;16.13;;;7.88;;
65373;SDS011;52070;53.760;9.678;2022-12-20T10:08:23;14.65;;;7.28;;
65373;SDS011;52070;53.760;9.678;2022-12-20T10:11:01;11.50;;;7.20;;
65373;SDS011;52070;53.760;9.678;2022-12-20T10:13:39;14.23;;;7.30;;
65373;SDS011;52070;53.760;9.678;2022-12-20T10:16:26;13.70;;;8.13;;
65373;SDS011;52070;53.760;9.678;2022-12-20T10:19:01;15.65;;;8.18;;
65373;SDS011;52070;53.760;9.678;2022-12-20T10:21:42;18.90;;;8.63;;
65373;SDS011;52070;53.760;9.678;2022-12-20T10:24:15;12.27;;;7.45;;
65373;SDS011;52070;53.760;9.678;2022-12-20T10:29:11;13.57;;;7.88;;
65373;SDS011;52070;53.760;9.678;2022-12-20T10:31:38;16.63;;;8.32;;
65373;SDS011;52070;53.760;9.678;2022-12-20T10:34:06;18.15;;;8.52;;
65373;SDS011;52070;53.760;9.678;2022-12-20T10:36:34;17.88;;;8.77;;
65373;SDS011;52070;53.760;9.678;2022-12-20T10:39:04;14.77;;;8.93;;
65373;SDS011;52070;53.760;9.678;2022-12-20T10:41:45;13.50;;;8.27;;
65373;SDS011;52070;53.760;9.678;2022-12-20T10:44:15;14.48;;;8.15;;
65373;SDS011;52070;53.760;9.678;2022-12-20T10:46:46;15.88;;;7.82;;
65373;SDS011;52070;53.760;9.678;2022-12-20T10:49:21;13.50;;;7.60;;
65373;SDS011;52070;53.760;9.678;2022-12-20T10:51:56;13.20;;;7.63;;
65373;SDS011;52070;53.760;9.678;2022-12-20T10:54:29;13.40;;;7.85;;
65373;SDS011;52070;53.760;9.678;2022-12-20T10:56:58;14.35;;;7.97;;
65373;SDS011;52070;53.760;9.678;2022-12-20T10:59:29;12.93;;;7.70;;
65373;SDS011;52070;53.760;9.678;2022-12-20T11:01:59;15.90;;;7.55;;
65373;SDS011;52070;53.760;9.678;2022-12-20T11:04:28;12.60;;;7.50;;
65373;SDS011;52070;53.760;9.678;2022-12-20T11:06:57;15.68;;;7.20;;
65373;SDS011;52070;53.760;9.678;2022-12-20T11:09:27;12.98;;;6.55;;
65373;SDS011;52070;53.760;9.678;2022-12-20T11:11:57;14.23;;;7.55;;
65373;SDS011;52070;53.760;9.678;2022-12-20T11:14:25;9.85;;;6.38;;
65373;SDS011;52070;53.760;9.678;2022-12-20T11:16:53;8.70;;;6.45;;
65373;SDS011;52070;53.760;9.678;2022-12-20T11:19:28;11.80;;;6.50;;
65373;SDS011;52070;53.760;9.678;2022-12-20T11:22:00;9.48;;;5.85;;
65373;SDS011;52070;53.760;9.678;2022-12-20T11:24:39;11.55;;;6.00;;
65373;SDS011;52070;53.760;9.678;2022-12-20T11:27:17;14.60;;;6.15;;
65373;SDS011;52070;53.760;9.678;2022-12-20T11:35:46;12.02;;;6.22;;
65373;SDS011;52070;53.760;9.678;2022-12-20T11:38:22;9.52;;;5.68;;
65373;SDS011;52070;53.760;9.678;2022-12-20T11:41:02;12.05;;;5.53;;
65373;SDS011;52070;53.760;9.678;2022-12-20T11:43:43;9.33;;;6.00;;
65373;SDS011;52070;53.760;9.678;2022-12-20T11:46:26;8.75;;;5.05;;
65373;SDS011;52070;53.760;9.678;2022-12-20T11:49:09;11.55;;;5.47;;
65373;SDS011;52070;53.760;9.678;2022-12-20T11:51:48;9.82;;;5.30;;
65373;SDS011;52070;53.760;9.678;2022-12-20T11:54:25;11.73;;;5.60;;
65373;SDS011;52070;53.760;9.678;2022-12-20T11:56:57;7.82;;;5.10;;
65373;SDS011;52070;53.760;9.678;2022-12-20T11:59:30;10.10;;;5.40;;
65373;SDS011;52070;53.760;9.678;2022-12-20T12:02:07;8.38;;;5.28;;
65373;SDS011;52070;53.760;9.678;2022-12-20T12:04:38;7.47;;;4.50;;
65373;SDS011;52070;53.760;9.678;2022-12-20T12:07:11;13.63;;;5.00;;
65373;SDS011;52070;53.760;9.678;2022-12-20T12:09:43;8.10;;;5.05;;
65373;SDS011;52070;53.760;9.678;2022-12-20T12:12:18;12.20;;;5.30;;
65373;SDS011;52070;53.760;9.678;2022-12-20T12:14:51;10.70;;;5.20;;
65373;SDS011;52070;53.760;9.678;2022-12-20T12:17:25;10.02;;;5.38;;
65373;SDS011;52070;53.760;9.678;2022-12-20T12:20:00;9.65;;;5.25;;
65373;SDS011;52070;53.760;9.678;2022-12-20T12:22:45;10.48;;;5.18;;
65373;SDS011;52070;53.760;9.678;2022-12-20T12:25:16;8.90;;;5.00;;
65373;SDS011;52070;53.760;9.678;2022-12-20T12:27:45;8.75;;;5.07;;
65373;SDS011;52070;53.760;9.678;2022-12-20T12:30:12;9.27;;;4.78;;
65373;SDS011;52070;53.760;9.678;2022-12-20T12:32:41;9.32;;;4.80;;
65373;SDS011;52070;53.760;9.678;2022-12-20T12:35:18;8.93;;;4.78;;
65373;SDS011;52070;53.760;9.678;2022-12-20T12:38:25;8.45;;;4.82;;
65373;SDS011;52070;53.760;9.678;2022-12-20T12:41:05;10.13;;;4.70;;
65373;SDS011;52070;53.760;9.678;2022-12-20T12:43:52;9.93;;;5.07;;
65373;SDS011;52070;53.760;9.678;2022-12-20T12:46:21;8.35;;;5.18;;
65373;SDS011;52070;53.760;9.678;2022-12-20T12:48:54;7.80;;;4.65;;
65373;SDS011;52070;53.760;9.678;2022-12-20T12:51:26;12.75;;;4.43;;
65373;SDS011;52070;53.760;9.678;2022-12-20T12:54:11;7.95;;;4.95;;
65373;SDS011;52070;53.760;9.678;2022-12-20T12:56:44;8.00;;;4.32;;
65373;SDS011;52070;53.760;9.678;2022-12-20T12:59:38;13.77;;;5.00;;
65373;SDS011;52070;53.760;9.678;2022-12-20T13:07:56;8.15;;;4.88;;
65373;SDS011;52070;53.760;9.678;2022-12-20T13:13:32;8.18;;;4.88;;
65373;SDS011;52070;53.760;9.678;2022-12-20T13:16:08;8.68;;;5.05;;
65373;SDS011;52070;53.760;9.678;2022-12-20T13:18:38;12.35;;;6.00;;
65373;SDS011;52070;53.760;9.678;2022-12-20T13:21:35;10.20;;;6.15;;
65373;SDS011;52070;53.760;9.678;2022-12-20T13:27:14;11.02;;;5.80;;
65373;SDS011;52070;53.760;9.678;2022-12-20T13:33:01;11.10;;;6.25;;
65373;SDS011;52070;53.760;9.678;2022-12-20T13:35:57;11.75;;;6.10;;
65373;SDS011;52070;53.760;9.678;2022-12-20T13:38:34;12.00;;;6.93;;
65373;SDS011;52070;53.760;9.678;2022-12-20T13:41:18;11.48;;;6.75;;
65373;SDS011;52070;53.760;9.678;2022-12-20T13:43:52;12.00;;;6.68;;
65373;SDS011;52070;53.760;9.678;2022-12-20T13:46:24;13.38;;;6.90;;
65373;SDS011;52070;53.760;9.678;2022-12-20T13:48:58;13.57;;;7.10;;
65373;SDS011;52070;53.760;9.678;2022-12-20T13:51:28;14.77;;;6.95;;
65373;SDS011;52070;53.760;9.678;2022-12-20T13:54:02;10.13;;;6.45;;
65373;SDS011;52070;53.760;9.678;2022-12-20T13:56:32;13.18;;;7.03;;
65373;SDS011;52070;53.760;9.678;2022-12-20T13:59:04;11.73;;;6.75;;
65373;SDS011;52070;53.760;9.678;2022-12-20T14:01:35;11.45;;;6.88;;
65373;SDS011;52070;53.760;9.678;2022-12-20T14:04:05;12.43;;;6.72;;
65373;SDS011;52070;53.760;9.678;2022-12-20T14:06:32;11.48;;;7.30;;
65373;SDS011;52070;53.760;9.678;2022-12-20T14:09:00;11.02;;;6.63;;
65373;SDS011;52070;53.760;9.678;2022-12-20T14:11:27;13.77;;;7.70;;
65373;SDS011;52070;53.760;9.678;2022-12-20T14:13:55;14.07;;;6.65;;
65373;SDS011;52070;53.760;9.678;2022-12-20T14:16:29;11.73;;;6.70;;
65373;SDS011;52070;53.760;9.678;2022-12-20T14:19:01;14.80;;;6.93;;
65373;SDS011;52070;53.760;9.678;2022-12-20T14:21:31;12.35;;;6.85;;
65373;SDS011;52070;53.760;9.678;2022-12-20T14:24:01;10.35;;;6.65;;
65373;SDS011;52070;53.760;9.678;2022-12-20T14:26:30;13.07;;;6.60;;
65373;SDS011;52070;53.760;9.678;2022-12-20T14:29:01;13.02;;;7.22;;
65373;SDS011;52070;53.760;9.678;2022-12-20T14:31:36;13.07;;;6.60;;
65373;SDS011;52070;53.760;9.678;2022-12-20T14:34:06;12.90;;;6.50;;
65373;SDS011;52070;53.760;9.678;2022-12-20T14:36:42;12.07;;;6.80;;
65373;SDS011;52070;53.760;9.678;2022-12-20T14:39:21;13.85;;;7.32;;
65373;SDS011;52070;53.760;9.678;2022-12-20T14:41:54;12.35;;;7.40;;
65373;SDS011;52070;53.760;9.678;2022-12-20T14:44:22;13.85;;;6.80;;
65373;SDS011;52070;53.760;9.678;2022-12-20T14:46:51;12.02;;;6.95;;
65373;SDS011;52070;53.760;9.678;2022-12-20T14:49:22;14.02;;;7.15;;
65373;SDS011;52070;53.760;9.678;2022-12-20T14:54:31;11.57;;;6.70;;
65373;SDS011;52070;53.760;9.678;2022-12-20T14:57:00;15.30;;;6.90;;
65373;SDS011;52070;53.760;9.678;2022-12-20T14:59:28;13.43;;;7.43;;
65373;SDS011;52070;53.760;9.678;2022-12-20T15:01:56;18.27;;;7.60;;
65373;SDS011;52070;53.760;9.678;2022-12-20T15:04:24;15.65;;;8.48;;
65373;SDS011;52070;53.760;9.678;2022-12-20T15:06:58;13.65;;;7.50;;
65373;SDS011;52070;53.760;9.678;2022-12-20T15:09:26;15.00;;;8.25;;
65373;SDS011;52070;53.760;9.678;2022-12-20T15:11:53;17.90;;;8.02;;
65373;SDS011;52070;53.760;9.678;2022-12-20T15:14:25;13.15;;;7.32;;
65373;SDS011;52070;53.760;9.678;2022-12-20T15:16:58;15.23;;;7.57;;
65373;SDS011;52070;53.760;9.678;2022-12-20T15:19:25;13.55;;;8.02;;
65373;SDS011;52070;53.760;9.678;2022-12-20T15:21:52;12.77;;;7.38;;
65373;SDS011;52070;53.760;9.678;2022-12-20T15:24:22;17.38;;;8.25;;
65373;SDS011;52070;53.760;9.678;2022-12-20T15:26:50;13.10;;;7.63;;